Time;durP1;ratioP1;P1;durP2;ratioP2;P2;SDS_P1;SDS_P2;PMS_P1;PMS_P2;Temp;Humidity;BMP_temperature;BMP_pressure;BME280_temperature;BME280_humidity;BME280_pressure;Samples;Min_cycle;Max_cycle;Signal;HPM_P1;HPM_P2
2023/11/28 00:00:05;;;;;;;;;;;;;;;;;;5090968;28;19912;-87
2023/11/28 00:02:31;;;;;;;;;;;;;;;;;;5090383;28;19908;-88
2023/11/28 00:04:56;;;;;;;;;;;;;;;;;;5087792;28;19951;-81
2023/11/28 00:07:22;;;;;;;;;;;;;;;;;;5087594;28;19943;-81
2023/11/28 00:09:48;;;;;;;;;;;;;;;;;;5089931;28;19916;-81
2023/11/28 00:12:15;;;;;;;;;;;;;;;;;;5088312;28;20359;-83
2023/11/28 00:14:41;;;;;;;;;;;;;;;;;;5089414;28;20386;-81
2023/11/28 00:17:07;;;;;;;;;;;;;;;;;;5089065;28;19955;-81
2023/11/28 00:19:33;;;;;;;;;;;;;;;;;;5089488;28;19967;-81
2023/11/28 00:21:59;;;;;;;;;;;;;;;;;;5067808;28;19926;-81
2023/11/28 00:24:25;;;;;;;;;;;;;;;;;;5093353;28;20010;-82
2023/11/28 00:26:51;;;;;;;;;;;;;;;;;;5087864;28;19930;-82
2023/11/28 00:29:17;;;;;;;;;;;;;;;;;;5089687;28;19998;-83
2023/11/28 00:31:43;;;;;;;;;;;;;;;;;;5088638;28;19962;-81
2023/11/28 00:34:09;;;;;;;;;;;;;;;;;;5089107;28;19919;-82
2023/11/28 00:36:35;;;;;;;;;;;;;;;;;;5071975;28;19963;-82
2023/11/28 00:39:03;;;;;;;;;;;;;;;;;;5094004;28;19939;-82
2023/11/28 00:41:29;;;;;;;;;;;;;;;;;;5092936;28;19955;-82
2023/11/28 00:43:55;;;;;;;;;;;;;;;;;;5093097;28;20103;-82
2023/11/28 00:46:22;;;;;;;;;;;;;;;;;;5092343;28;19908;-81
2023/11/28 00:48:48;;;;;;;;;;;;;;;;;;5088070;28;19908;-83
2023/11/28 00:51:17;;;;;;;;;;;;;;;;;;5090906;28;19951;-82
2023/11/28 00:53:43;;;;;;;;;;;;;;;;;;5093165;28;20275;-81
2023/11/28 00:56:09;;;;;;;;;;;;;;;;;;5092750;28;19916;-82
2023/11/28 00:58:35;;;;;;;;;;;;;;;;;;5092959;28;19943;-81
2023/11/28 01:01:01;;;;;;;;;;;;;;;;;;5075592;28;19951;-82
2023/11/28 01:03:26;;;;;;;;;;;;;;;;;;5093039;28;20432;-81
2023/11/28 01:05:52;;;;;;;;;;;;;;;;;;5091331;28;20004;-83
2023/11/28 01:08:18;;;;;;;;;;;;;;;;;;5093030;28;19943;-83
2023/11/28 01:10:45;;;;;;;;;;;;;;;;;;5093130;28;19962;-81
2023/11/28 01:13:11;;;;;;;;;;;;;;;;;;5094648;28;19911;-84
2023/11/28 01:15:38;;;;;;;;;;;;;;;;;;5092662;28;19912;-86
2023/11/28 01:18:04;;;;;;;;;;;;;;;;;;5093588;28;19923;-85
2023/11/28 01:20:30;;;;;;;;;;;;;;;;;;5091430;28;19947;-85
2023/11/28 01:22:55;;;;;;;;;;;;;;;;;;5093136;28;19934;-87
2023/11/28 01:25:21;;;;;;;;;;;;;;;;;;5092446;28;20316;-86
2023/11/28 01:27:47;;;;;;;;;;;;;;;;;;5092505;28;20444;-85
2023/11/28 01:30:13;;;;;;;;;;;;;;;;;;5073865;28;20371;-85
2023/11/28 01:32:39;;;;;;;;;;;;;;;;;;5087124;28;19934;-85
2023/11/28 01:35:05;;;;;;;;;;;;;;;;;;5092019;28;20359;-86
2023/11/28 01:37:31;;;;;;;;;;;;;;;;;;5091912;28;19916;-85
2023/11/28 01:39:57;;;;;;;;;;;;;;;;;;5091371;28;20084;-86
2023/11/28 01:42:23;;;;;;;;;;;;;;;;;;5087017;28;19962;-86
2023/11/28 01:44:49;;;;;;;;;;;;;;;;;;5089922;28;19954;-86
2023/11/28 01:47:15;;;;;;;;;;;;;;;;;;5073358;28;19955;-86
2023/11/28 01:49:41;;;;;;;;;;;;;;;;;;5088219;28;19996;-85
2023/11/28 01:52:10;;;;;;;;;;;;;;;;;;5091294;28;20027;-86
2023/11/28 01:54:35;;;;;;;;;;;;;;;;;;5091663;28;19931;-85
2023/11/28 01:57:01;;;;;;;;;;;;;;;;;;5091597;28;20010;-85
2023/11/28 01:59:27;;;;;;;;;;;;;;;;;;5091411;28;19948;-85
2023/11/28 02:01:53;;;;;;;;;;;;;;;;;;5092134;28;20308;-85
2023/11/28 02:04:19;;;;;;;;;;;;;;;;;;5090420;28;20399;-85
2023/11/28 02:06:45;;;;;;;;;;;;;;;;;;5090555;28;20432;-85
2023/11/28 02:09:11;;;;;;;;;;;;;;;;;;5091617;28;19964;-86
2023/11/28 02:11:37;;;;;;;;;;;;;;;;;;5092777;28;20228;-86
2023/11/28 02:14:03;;;;;;;;;;;;;;;;;;5092001;28;20395;-86
2023/11/28 02:16:29;;;;;;;;;;;;;;;;;;5096108;28;19949;-86
2023/11/28 02:18:55;;;;;;;;;;;;;;;;;;5087002;28;19907;-86
2023/11/28 02:21:21;;;;;;;;;;;;;;;;;;5102537;28;19912;-85
2023/11/28 02:23:47;;;;;;;;;;;;;;;;;;5089446;28;19990;-85
2023/11/28 02:26:12;;;;;;;;;;;;;;;;;;5096939;28;20448;-87
2023/11/28 02:28:38;;;;;;;;;;;;;;;;;;5091494;28;19955;-86
2023/11/28 02:31:05;;;;;;;;;;;;;;;;;;5072900;28;20328;-86
2023/11/28 02:33:31;;;;;;;;;;;;;;;;;;5090379;28;20291;-85
2023/11/28 02:35:57;;;;;;;;;;;;;;;;;;5086361;28;19962;-86
2023/11/28 02:38:23;;;;;;;;;;;;;;;;;;5091623;28;19912;-86
2023/11/28 02:40:49;;;;;;;;;;;;;;;;;;5090762;28;19951;-86
2023/11/28 02:43:16;;;;;;;;;;;;;;;;;;5090640;28;20372;-87
2023/11/28 02:45:42;;;;;;;;;;;;;;;;;;5091195;28;19918;-87
2023/11/28 02:48:08;;;;;;;;;;;;;;;;;;5088674;28;19994;-87
2023/11/28 02:50:34;;;;;;;;;;;;;;;;;;5090558;28;20336;-87
2023/11/28 02:52:59;;;;;;;;;;;;;;;;;;5091573;28;20336;-87
2023/11/28 02:55:25;;;;;;;;;;;;;;;;;;5088565;28;20051;-87
2023/11/28 02:57:51;;;;;;;;;;;;;;;;;;5090342;28;20312;-87
2023/11/28 03:00:17;;;;;;;;;;;;;;;;;;5089434;28;19952;-86
2023/11/28 03:02:43;;;;;;;;;;;;;;;;;;5084956;28;19911;-86
2023/11/28 03:05:09;;;;;;;;;;;;;;;;;;5088623;28;19918;-85
2023/11/28 03:07:35;;;;;;;;;;;;;;;;;;5090304;28;20023;-86
2023/11/28 03:10:01;;;;;;;;;;;;;;;;;;5091381;28;19911;-86
2023/11/28 03:12:27;;;;;;;;;;;;;;;;;;5090711;28;20419;-86
2023/11/28 03:14:53;;;;;;;;;;;;;;;;;;5089820;28;20412;-87
2023/11/28 03:17:19;;;;;;;;;;;;;;;;;;5090445;28;20322;-86
2023/11/28 03:19:45;;;;;;;;;;;;;;;;;;5089658;28;20395;-86
2023/11/28 03:22:11;;;;;;;;;;;;;;;;;;5090130;28;20538;-86
2023/11/28 03:24:37;;;;;;;;;;;;;;;;;;5090802;28;20079;-86
2023/11/28 03:27:03;;;;;;;;;;;;;;;;;;5090474;28;19934;-86
2023/11/28 03:29:29;;;;;;;;;;;;;;;;;;5097619;28;20356;-86
2023/11/28 03:31:55;;;;;;;;;;;;;;;;;;5091734;28;19951;-87
2023/11/28 03:34:20;;;;;;;;;;;;;;;;;;5088831;28;19958;-86
2023/11/28 03:36:46;;;;;;;;;;;;;;;;;;5068545;28;19951;-88
2023/11/28 03:39:12;;;;;;;;;;;;;;;;;;5091361;28;19908;-88
2023/11/28 03:41:38;;;;;;;;;;;;;;;;;;5091017;28;19959;-87
2023/11/28 03:44:04;;;;;;;;;;;;;;;;;;5090856;28;19947;-87
2023/11/28 03:46:30;;;;;;;;;;;;;;;;;;5073486;28;20005;-89
2023/11/28 03:48:56;;;;;;;;;;;;;;;;;;5089918;28;19908;-88
2023/11/28 03:51:22;;;;;;;;;;;;;;;;;;5089840;28;19919;-88
2023/11/28 03:53:49;;;;;;;;;;;;;;;;;;5090686;28;20367;-88
2023/11/28 03:56:15;;;;;;;;;;;;;;;;;;5089382;28;19947;-85
2023/11/28 03:58:41;;;;;;;;;;;;;;;;;;5090423;28;19942;-88
2023/11/28 04:01:07;;;;;;;;;;;;;;;;;;5089616;28;19969;-87
2023/11/28 04:03:33;;;;;;;;;;;;;;;;;;5088496;28;20159;-88
2023/11/28 04:05:59;;;;;;;;;;;;;;;;;;5087674;28;19908;-88
2023/11/28 04:08:25;;;;;;;;;;;;;;;;;;5071930;28;19943;-88
2023/11/28 04:10:51;;;;;;;;;;;;;;;;;;5086566;28;19908;-87
2023/11/28 04:13:17;;;;;;;;;;;;;;;;;;5088883;28;19939;-88
2023/11/28 04:15:43;;;;;;;;;;;;;;;;;;5069723;28;19966;-89
2023/11/28 04:18:12;;;;;;;;;;;;;;;;;;5087668;28;19946;-89
2023/11/28 04:20:38;;;;;;;;;;;;;;;;;;5086695;28;20003;-89
2023/11/28 04:23:04;;;;;;;;;;;;;;;;;;5090199;28;20014;-88
2023/11/28 04:25:30;;;;;;;;;;;;;;;;;;5090657;28;20032;-88
2023/11/28 04:27:56;;;;;;;;;;;;;;;;;;5090359;28;19951;-88
2023/11/28 04:30:22;;;;;;;;;;;;;;;;;;5089956;28;20418;-87
2023/11/28 04:32:48;;;;;;;;;;;;;;;;;;5090027;28;19935;-88
2023/11/28 04:35:13;;;;;;;;;;;;;;;;;;5088968;28;20323;-89
2023/11/28 04:37:40;;;;;;;;;;;;;;;;;;5094627;28;20362;-89
2023/11/28 04:40:06;;;;;;;;;;;;;;;;;;5090157;28;20135;-89
2023/11/28 04:42:33;;;;;;;;;;;;;;;;;;5090056;28;19999;-88
2023/11/28 04:44:58;;;;;;;;;;;;;;;;;;5087126;28;20035;-86
2023/11/28 04:47:24;;;;;;;;;;;;;;;;;;5089795;28;20025;-86
2023/11/28 04:49:50;;;;;;;;;;;;;;;;;;5087550;28;19974;-86
2023/11/28 04:52:16;;;;;;;;;;;;;;;;;;5088945;28;20394;-87
2023/11/28 04:54:42;;;;;;;;;;;;;;;;;;5087535;28;19939;-87
2023/11/28 04:57:08;;;;;;;;;;;;;;;;;;5089079;28;19962;-86
2023/11/28 04:59:34;;;;;;;;;;;;;;;;;;5089030;28;19947;-86
2023/11/28 05:02:00;;;;;;;;;;;;;;;;;;5089111;28;19938;-86
2023/11/28 05:04:26;;;;;;;;;;;;;;;;;;5074165;28;19912;-86
2023/11/28 05:06:52;;;;;;;;;;;;;;;;;;5088850;28;19951;-87
2023/11/28 05:09:18;;;;;;;;;;;;;;;;;;5078529;28;19992;-87
2023/11/28 05:11:44;;;;;;;;;;;;;;;;;;5073942;28;20374;-87
2023/11/28 05:14:10;;;;;;;;;;;;;;;;;;5088864;28;19955;-87
2023/11/28 05:16:36;;;;;;;;;;;;;;;;;;5085229;28;19967;-86
2023/11/28 05:19:02;;;;;;;;;;;;;;;;;;5088641;28;20092;-87
2023/11/28 05:21:28;;;;;;;;;;;;;;;;;;5072546;28;20412;-87
2023/11/28 05:23:54;;;;;;;;;;;;;;;;;;5090607;28;20011;-87
2023/11/28 05:26:20;;;;;;;;;;;;;;;;;;5073708;28;20038;-87
2023/11/28 05:28:47;;;;;;;;;;;;;;;;;;5091483;28;20001;-86
2023/11/28 05:31:13;;;;;;;;;;;;;;;;;;5090773;28;19908;-86
2023/11/28 05:33:42;;;;;;;;;;;;;;;;;;5076584;28;19950;-86
2023/11/28 05:36:08;;;;;;;;;;;;;;;;;;5083455;28;19920;-87
2023/11/28 05:38:34;;;;;;;;;;;;;;;;;;5074005;28;20328;-86
2023/11/28 05:41:00;;;;;;;;;;;;;;;;;;5091687;28;19932;-86
2023/11/28 05:43:26;;;;;;;;;;;;;;;;;;5073832;28;20327;-86
2023/11/28 05:45:51;;;;;;;;;;;;;;;;;;5092115;28;20322;-87
2023/11/28 05:48:17;;;;;;;;;;;;;;;;;;5089937;28;20381;-86
2023/11/28 05:50:43;;;;;;;;;;;;;;;;;;5090253;28;19998;-86
2023/11/28 05:53:09;;;;;;;;;;;;;;;;;;5092660;28;19954;-86
2023/11/28 05:55:36;;;;;;;;;;;;;;;;;;5092197;28;19912;-83
2023/11/28 05:58:02;;;;;;;;;;;;;;;;;;5072460;28;19912;-82
2023/11/28 06:00:28;;;;;;;;;;;;;;;;;;5088808;28;19915;-82
2023/11/28 06:02:54;;;;;;;;;;;;;;;;;;5086260;28;19967;-85
2023/11/28 06:05:20;;;;;;;;;;;;;;;;;;5060889;28;19935;-84
2023/11/28 06:07:46;;;;;;;;;;;;;;;;;;5088345;28;19911;-83
2023/11/28 06:10:13;;;;;;;;;;;;;;;;;;5090893;28;20394;-84
2023/11/28 06:12:39;;;;;;;;;;;;;;;;;;5091232;28;19912;-84
2023/11/28 06:15:06;;;;;;;;;;;;;;;;;;5089646;28;20003;-84
2023/11/28 06:17:32;;;;;;;;;;;;;;;;;;5089298;28;20372;-84
2023/11/28 06:19:58;;;;;;;;;;;;;;;;;;5088430;28;19953;-84
2023/11/28 06:22:24;;;;;;;;;;;;;;;;;;5085650;28;20401;-83
2023/11/28 06:24:50;;;;;;;;;;;;;;;;;;5087306;28;20338;-83
2023/11/28 06:27:16;;;;;;;;;;;;;;;;;;5071524;28;20385;-84
2023/11/28 06:29:43;;;;;;;;;;;;;;;;;;5090212;28;19950;-82
2023/11/28 06:32:09;;;;;;;;;;;;;;;;;;5088418;28;19998;-82
2023/11/28 06:34:35;;;;;;;;;;;;;;;;;;5087937;28;20398;-83
2023/11/28 06:37:01;;;;;;;;;;;;;;;;;;5083165;28;19955;-84
2023/11/28 06:39:27;;;;;;;;;;;;;;;;;;5090913;28;19951;-83
2023/11/28 06:41:53;;;;;;;;;;;;;;;;;;5090802;28;20014;-82
2023/11/28 06:44:20;;;;;;;;;;;;;;;;;;5090403;28;20002;-83
2023/11/28 06:46:49;;;;;;;;;;;;;;;;;;5090107;28;20328;-84
2023/11/28 06:49:15;;;;;;;;;;;;;;;;;;5089874;28;19912;-84
2023/11/28 06:51:41;;;;;;;;;;;;;;;;;;5090248;28;19942;-84
2023/11/28 06:54:09;;;;;;;;;;;;;;;;;;5090174;28;20240;-84
2023/11/28 06:56:35;;;;;;;;;;;;;;;;;;5090216;28;19916;-82
2023/11/28 06:59:01;;;;;;;;;;;;;;;;;;5090329;28;20272;-82
2023/11/28 07:01:27;;;;;;;;;;;;;;;;;;5071546;28;20355;-84
2023/11/28 07:03:52;;;;;;;;;;;;;;;;;;5086612;28;19919;-84
2023/11/28 07:06:19;;;;;;;;;;;;;;;;;;5090314;28;19997;-86
2023/11/28 07:08:45;;;;;;;;;;;;;;;;;;5089844;28;19951;-84
2023/11/28 07:11:11;;;;;;;;;;;;;;;;;;5087818;28;19965;-86
2023/11/28 07:13:36;;;;;;;;;;;;;;;;;;5089092;28;19939;-86
2023/11/28 07:16:02;;;;;;;;;;;;;;;;;;5082532;28;19951;-85
2023/11/28 07:18:28;;;;;;;;;;;;;;;;;;5067232;28;20391;-86
2023/11/28 07:20:54;;;;;;;;;;;;;;;;;;5089338;28;19948;-85
2023/11/28 07:23:21;;;;;;;;;;;;;;;;;;5090770;28;19956;-85
2023/11/28 07:25:47;;;;;;;;;;;;;;;;;;5085504;28;19919;-83
2023/11/28 07:28:13;;;;;;;;;;;;;;;;;;5083929;28;19916;-85
2023/11/28 07:30:39;;;;;;;;;;;;;;;;;;5083504;28;19999;-85
2023/11/28 07:33:05;;;;;;;;;;;;;;;;;;5083089;28;19966;-85
2023/11/28 07:35:31;;;;;;;;;;;;;;;;;;5088990;28;19912;-85
2023/11/28 07:37:57;;;;;;;;;;;;;;;;;;5090675;28;20335;-86
2023/11/28 07:40:26;;;;;;;;;;;;;;;;;;5090573;28;19912;-88
2023/11/28 07:42:52;;;;;;;;;;;;;;;;;;5072497;28;19912;-86
2023/11/28 07:45:18;;;;;;;;;;;;;;;;;;5089338;28;19908;-87
2023/11/28 07:47:44;;;;;;;;;;;;;;;;;;5084469;28;20011;-87
2023/11/28 07:50:10;;;;;;;;;;;;;;;;;;5088168;28;19939;-85
2023/11/28 07:52:36;;;;;;;;;;;;;;;;;;5070109;28;20030;-86
2023/11/28 07:55:02;;;;;;;;;;;;;;;;;;5090648;28;20340;-87
2023/11/28 07:57:28;;;;;;;;;;;;;;;;;;5086088;28;19927;-87
2023/11/28 07:59:54;;;;;;;;;;;;;;;;;;5084765;28;20370;-86
2023/11/28 08:02:20;;;;;;;;;;;;;;;;;;5072595;28;21602;-88
2023/11/28 08:04:46;;;;;;;;;;;;;;;;;;5069125;28;19912;-87
2023/11/28 08:07:12;;;;;;;;;;;;;;;;;;5078554;28;19918;-84
2023/11/28 08:09:38;;;;;;;;;;;;;;;;;;5083802;28;20343;-87
2023/11/28 08:12:04;;;;;;;;;;;;;;;;;;5084113;28;19916;-87
2023/11/28 08:14:30;;;;;;;;;;;;;;;;;;5090582;28;19984;-87
2023/11/28 08:16:56;;;;;;;;;;;;;;;;;;5090221;28;19958;-88
2023/11/28 08:19:22;;;;;;;;;;;;;;;;;;5091497;28;19919;-90
2023/11/28 08:21:48;;;;;;;;;;;;;;;;;;5091309;28;19919;-90
2023/11/28 08:24:14;;;;;;;;;;;;;;;;;;5092493;28;19916;-89
2023/11/28 08:26:39;;;;;;;;;;;;;;;;;;5092449;28;19961;-92
2023/11/28 08:29:05;;;;;;;;;;;;;;;;;;5092691;28;19923;-92
2023/11/28 08:31:31;;;;;;;;;;;;;;;;;;5085742;28;19919;-89
2023/11/28 08:33:57;;;;;;;;;;;;;;;;;;5071814;28;19912;-85
2023/11/28 08:36:23;;;;;;;;;;;;;;;;;;5085034;28;19924;-88
2023/11/28 08:38:50;;;;;;;;;;;;;;;;;;5074467;28;20421;-89
2023/11/28 08:41:16;;;;;;;;;;;;;;;;;;5087608;28;19994;-91
2023/11/28 08:43:42;;;;;;;;;;;;;;;;;;5090524;28;20003;-89
2023/11/28 08:46:09;;;;;;;;;;;;;;;;;;5091851;28;19911;-89
2023/11/28 08:48:34;;;;;;;;;;;;;;;;;;5073227;28;19912;-91
2023/11/28 08:51:00;;;;;;;;;;;;;;;;;;5088888;28;19985;-82
2023/11/28 08:53:26;;;;;;;;;;;;;;;;;;5087975;28;19975;-83
2023/11/28 08:55:52;;;;;;;;;;;;;;;;;;5087612;28;19946;-83
2023/11/28 08:58:18;;;;;;;;;;;;;;;;;;5088585;28;19951;-83
2023/11/28 09:00:45;;;;;;;;;;;;;;;;;;5092069;28;20000;-88
2023/11/28 09:03:11;;;;;;;;;;;;;;;;;;5093361;28;19908;-91
2023/11/28 09:05:37;;;;;;;;;;;;;;;;;;5090301;28;19961;-88
2023/11/28 09:08:03;;;;;;;;;;;;;;;;;;5093088;28;19912;-88
2023/11/28 09:10:29;;;;;;;;;;;;;;;;;;5092043;28;19967;-89
2023/11/28 09:12:55;;;;;;;;;;;;;;;;;;5080129;28;20006;-88
2023/11/28 09:15:21;;;;;;;;;;;;;;;;;;5088655;28;19908;-90
2023/11/28 09:17:47;;;;;;;;;;;;;;;;;;5091492;28;20022;-90
2023/11/28 09:20:13;;;;;;;;;;;;;;;;;;5093506;28;19916;-91
2023/11/28 09:22:40;;;;;;;;;;;;;;;;;;5075441;28;19911;-87
2023/11/28 09:25:06;;;;;;;;;;;;;;;;;;5065096;28;19915;-83
2023/11/28 09:27:32;;;;;;;;;;;;;;;;;;5084194;28;20282;-83
2023/11/28 09:29:58;;;;;;;;;;;;;;;;;;5084037;28;19965;-83
2023/11/28 09:32:24;;;;;;;;;;;;;;;;;;5076353;28;19916;-83
2023/11/28 09:34:50;;;;;;;;;;;;;;;;;;5091759;28;19947;-83
2023/11/28 09:37:16;;;;;;;;;;;;;;;;;;5076676;28;19959;-82
2023/11/28 09:39:43;;;;;;;;;;;;;;;;;;5092455;28;19951;-83
2023/11/28 09:42:09;;;;;;;;;;;;;;;;;;5091684;28;20237;-83
2023/11/28 09:44:35;;;;;;;;;;;;;;;;;;5092398;28;19938;-83
2023/11/28 09:47:01;;;;;;;;;;;;;;;;;;5091348;28;19939;-82
2023/11/28 09:49:28;;;;;;;;;;;;;;;;;;5072853;28;19969;-84
2023/11/28 09:51:54;;;;;;;;;;;;;;;;;;5085783;28;20414;-82
2023/11/28 09:54:20;;;;;;;;;;;;;;;;;;5090307;28;19951;-83
2023/11/28 09:56:46;;;;;;;;;;;;;;;;;;5085325;28;19951;-83
2023/11/28 09:59:12;;;;;;;;;;;;;;;;;;5090608;28;20286;-83
2023/11/28 10:01:38;;;;;;;;;;;;;;;;;;5072892;28;20383;-83
2023/11/28 10:04:04;;;;;;;;;;;;;;;;;;5084775;28;19992;-84
2023/11/28 10:06:30;;;;;;;;;;;;;;;;;;5090594;28;20389;-83
2023/11/28 10:08:56;;;;;;;;;;;;;;;;;;5074573;28;19995;-82
2023/11/28 10:11:22;;;;;;;;;;;;;;;;;;5072125;28;19955;-83
2023/11/28 10:13:48;;;;;;;;;;;;;;;;;;5076034;28;20049;-83
2023/11/28 10:16:14;;;;;;;;;;;;;;;;;;5062335;28;19963;-83
2023/11/28 10:18:40;;;;;;;;;;;;;;;;;;5083443;28;19992;-83
2023/11/28 10:21:06;;;;;;;;;;;;;;;;;;5077622;28;19912;-82
2023/11/28 10:23:31;;;;;;;;;;;;;;;;;;5089142;28;19955;-83
2023/11/28 10:25:57;;;;;;;;;;;;;;;;;;5088580;28;20042;-83
2023/11/28 10:28:23;;;;;;;;;;;;;;;;;;5078124;28;19912;-82
2023/11/28 10:30:50;;;;;;;;;;;;;;;;;;5090796;28;19939;-83
2023/11/28 10:33:17;;;;;;;;;;;;;;;;;;5072361;28;19957;-83
2023/11/28 10:35:44;;;;;;;;;;;;;;;;;;5089648;28;19912;-84
2023/11/28 10:38:10;;;;;;;;;;;;;;;;;;5065616;28;19915;-83
2023/11/28 10:40:35;;;;;;;;;;;;;;;;;;5090829;28;19919;-82
2023/11/28 10:43:01;;;;;;;;;;;;;;;;;;5090249;28;19918;-82
2023/11/28 10:45:27;;;;;;;;;;;;;;;;;;5071532;28;20006;-83
2023/11/28 10:47:54;;;;;;;;;;;;;;;;;;5088625;28;20359;-83
2023/11/28 10:50:21;;;;;;;;;;;;;;;;;;5088120;28;19918;-83
2023/11/28 10:52:47;;;;;;;;;;;;;;;;;;5090363;28;19977;-82
2023/11/28 10:55:15;;;;;;;;;;;;;;;;;;5090475;28;20498;-82
2023/11/28 10:57:42;;;;;;;;;;;;;;;;;;5087759;28;19923;-83
2023/11/28 11:00:08;;;;;;;;;;;;;;;;;;5072193;28;19908;-82
2023/11/28 11:02:34;;;;;;;;;;;;;;;;;;5089470;28;20385;-83
2023/11/28 11:05:00;;;;;;;;;;;;;;;;;;5070380;28;20002;-83
2023/11/28 11:07:26;;;;;;;;;;;;;;;;;;5090303;28;19948;-84
2023/11/28 11:09:52;;;;;;;;;;;;;;;;;;5091256;28;20221;-86
2023/11/28 11:12:18;;;;;;;;;;;;;;;;;;5090164;28;19955;-85
2023/11/28 11:14:44;;;;;;;;;;;;;;;;;;5090325;28;20020;-84
2023/11/28 11:17:10;;;;;;;;;;;;;;;;;;5088477;28;20512;-83
2023/11/28 11:19:36;;;;;;;;;;;;;;;;;;5090378;28;20281;-83
2023/11/28 11:22:02;;;;;;;;;;;;;;;;;;5089037;28;20374;-83
2023/11/28 11:24:28;;;;;;;;;;;;;;;;;;5071621;28;19908;-84
2023/11/28 11:26:54;;;;;;;;;;;;;;;;;;5090085;28;19962;-84
2023/11/28 11:29:20;;;;;;;;;;;;;;;;;;5090270;28;19911;-82
2023/11/28 11:31:46;;;;;;;;;;;;;;;;;;5090776;28;19974;-88
2023/11/28 11:34:12;;;;;;;;;;;;;;;;;;5089613;28;19945;-83
2023/11/28 11:36:38;;;;;;;;;;;;;;;;;;5084376;28;19957;-84
2023/11/28 11:39:05;;;;;;;;;;;;;;;;;;5092356;28;20330;-83
2023/11/28 11:41:31;;;;;;;;;;;;;;;;;;5091952;28;20046;-84
2023/11/28 11:43:57;;;;;;;;;;;;;;;;;;5094295;28;19919;-83
2023/11/28 11:46:24;;;;;;;;;;;;;;;;;;5096926;27;20359;-81
2023/11/28 11:48:50;;;;;;;;;;;;;;;;;;5090324;28;20549;-81
2023/11/28 11:51:16;;;;;;;;;;;;;;;;;;5089383;28;19962;-82
2023/11/28 11:53:42;;;;;;;;;;;;;;;;;;5089805;28;19947;-82
2023/11/28 11:56:07;;;;;;;;;;;;;;;;;;5089650;28;19947;-83
2023/11/28 11:58:33;;;;;;;;;;;;;;;;;;5088298;28;19912;-82
2023/11/28 12:01:00;;;;;;;;;;;;;;;;;;5081770;28;20319;-82
2023/11/28 12:03:26;;;;;;;;;;;;;;;;;;5087811;28;19912;-83
2023/11/28 12:05:52;;;;;;;;;;;;;;;;;;5085362;28;19993;-85
2023/11/28 12:08:18;;;;;;;;;;;;;;;;;;5089258;28;20084;-87
2023/11/28 12:10:44;;;;;;;;;;;;;;;;;;5066448;28;19927;-81
2023/11/28 12:13:10;;;;;;;;;;;;;;;;;;5089637;28;19912;-86
2023/11/28 12:15:36;;;;;;;;;;;;;;;;;;5089905;28;19963;-86
2023/11/28 12:18:02;;;;;;;;;;;;;;;;;;5089756;28;19912;-88
2023/11/28 12:20:29;;;;;;;;;;;;;;;;;;5084144;28;19916;-82
2023/11/28 12:22:54;;;;;;;;;;;;;;;;;;5086872;28;19948;-82
2023/11/28 12:25:21;;;;;;;;;;;;;;;;;;5086560;28;19916;-84
2023/11/28 12:27:46;;;;;;;;;;;;;;;;;;5069738;28;20282;-79
2023/11/28 12:30:16;;;;;;;;;;;;;;;;;;5085477;28;19954;-87
2023/11/28 12:32:41;;;;;;;;;;;;;;;;;;5084548;28;19913;-83
2023/11/28 12:35:07;;;;;;;;;;;;;;;;;;5083938;28;19984;-84
2023/11/28 12:37:33;;;;;;;;;;;;;;;;;;5086522;28;20000;-84
2023/11/28 12:40:00;;;;;;;;;;;;;;;;;;5068138;28;20322;-84
2023/11/28 12:42:25;;;;;;;;;;;;;;;;;;5088111;28;19916;-90
2023/11/28 12:44:51;;;;;;;;;;;;;;;;;;5089867;28;19912;-90
2023/11/28 12:47:18;;;;;;;;;;;;;;;;;;5083912;28;19947;-82
2023/11/28 12:49:45;;;;;;;;;;;;;;;;;;5082918;28;19912;-84
2023/11/28 12:52:11;;;;;;;;;;;;;;;;;;5083659;28;19918;-85
2023/11/28 12:54:37;;;;;;;;;;;;;;;;;;5086435;28;19994;-85
2023/11/28 12:57:03;;;;;;;;;;;;;;;;;;5066538;28;20013;-84
2023/11/28 12:59:29;;;;;;;;;;;;;;;;;;5085467;28;20009;-83
2023/11/28 13:01:55;;;;;;;;;;;;;;;;;;5066602;28;19952;-83
2023/11/28 13:04:21;;;;;;;;;;;;;;;;;;5088364;28;20026;-83
2023/11/28 13:06:49;;;;;;;;;;;;;;;;;;5079195;28;20022;-83
2023/11/28 13:09:15;;;;;;;;;;;;;;;;;;5064313;28;20382;-80
2023/11/28 13:11:41;;;;;;;;;;;;;;;;;;5086445;28;19916;-81
2023/11/28 13:14:07;;;;;;;;;;;;;;;;;;5084515;28;19912;-81
2023/11/28 13:16:33;;;;;;;;;;;;;;;;;;5083386;28;20086;-82
2023/11/28 13:18:59;;;;;;;;;;;;;;;;;;5079687;28;19956;-81
2023/11/28 13:21:25;;;;;;;;;;;;;;;;;;5079371;28;19958;-81
2023/11/28 13:23:51;;;;;;;;;;;;;;;;;;5088416;28;19908;-81
2023/11/28 13:26:17;;;;;;;;;;;;;;;;;;5086758;28;19957;-81
2023/11/28 13:28:43;;;;;;;;;;;;;;;;;;5088464;28;19959;-82
2023/11/28 13:31:10;;;;;;;;;;;;;;;;;;5079607;28;19912;-81
2023/11/28 13:33:43;;;;;;;;;;;;;;;;;;5078187;28;19916;-80
2023/11/28 13:36:09;;;;;;;;;;;;;;;;;;5078702;28;19912;-81
2023/11/28 13:38:35;;;;;;;;;;;;;;;;;;5068704;28;19923;-80
2023/11/28 13:41:01;;;;;;;;;;;;;;;;;;5075046;28;19999;-81
2023/11/28 13:43:27;;;;;;;;;;;;;;;;;;5088039;28;20018;-81
2023/11/28 13:45:54;;;;;;;;;;;;;;;;;;5071809;28;20295;-81
2023/11/28 13:48:20;;;;;;;;;;;;;;;;;;5079742;28;20256;-80
2023/11/28 13:50:46;;;;;;;;;;;;;;;;;;5058476;28;19912;-82
2023/11/28 13:53:12;;;;;;;;;;;;;;;;;;5091985;28;19958;-81
2023/11/28 13:55:40;;;;;;;;;;;;;;;;;;5091279;28;20405;-81
2023/11/28 13:58:06;;;;;;;;;;;;;;;;;;5091253;28;19920;-81
2023/11/28 14:00:32;;;;;;;;;;;;;;;;;;5090173;28;19959;-81
2023/11/28 14:02:58;;;;;;;;;;;;;;;;;;5088125;28;19916;-81
2023/11/28 14:05:24;;;;;;;;;;;;;;;;;;5089865;28;19954;-82
2023/11/28 14:07:50;;;;;;;;;;;;;;;;;;5089259;28;19952;-83
2023/11/28 14:10:16;;;;;;;;;;;;;;;;;;5087717;28;20041;-82
2023/11/28 14:12:42;;;;;;;;;;;;;;;;;;5083861;28;20335;-83
2023/11/28 14:15:08;;;;;;;;;;;;;;;;;;5084104;28;19912;-85
2023/11/28 14:17:33;;;;;;;;;;;;;;;;;;5083642;28;19998;-83
2023/11/28 14:19:59;;;;;;;;;;;;;;;;;;5087259;28;20186;-83
2023/11/28 14:22:26;;;;;;;;;;;;;;;;;;5088980;28;19960;-82
2023/11/28 14:24:52;;;;;;;;;;;;;;;;;;5091097;28;20342;-84
2023/11/28 14:27:18;;;;;;;;;;;;;;;;;;5086221;28;19958;-82
2023/11/28 14:29:44;;;;;;;;;;;;;;;;;;5089639;28;19916;-82
2023/11/28 14:32:10;;;;;;;;;;;;;;;;;;5090125;28;19916;-82
2023/11/28 14:34:36;;;;;;;;;;;;;;;;;;5090438;28;20382;-83
2023/11/28 14:37:02;;;;;;;;;;;;;;;;;;5089679;28;19994;-83
2023/11/28 14:39:29;;;;;;;;;;;;;;;;;;5077625;28;19912;-80
2023/11/28 14:41:55;;;;;;;;;;;;;;;;;;5085215;28;19908;-84
2023/11/28 14:44:21;;;;;;;;;;;;;;;;;;5080363;28;19966;-80
2023/11/28 14:46:47;;;;;;;;;;;;;;;;;;5085372;28;19986;-81
2023/11/28 14:49:13;;;;;;;;;;;;;;;;;;5085910;28;19962;-80
2023/11/28 14:51:39;;;;;;;;;;;;;;;;;;5087189;28;19944;-81
2023/11/28 14:54:07;;;;;;;;;;;;;;;;;;5090026;28;20362;-80
2023/11/28 14:56:33;;;;;;;;;;;;;;;;;;5089306;28;20008;-81
2023/11/28 14:58:59;;;;;;;;;;;;;;;;;;5089868;28;20320;-81
2023/11/28 15:01:25;;;;;;;;;;;;;;;;;;5088546;28;20022;-82
2023/11/28 15:03:51;;;;;;;;;;;;;;;;;;5086223;28;19943;-81
2023/11/28 15:06:17;;;;;;;;;;;;;;;;;;5089052;28;20001;-82
2023/11/28 15:08:42;;;;;;;;;;;;;;;;;;5090107;28;19939;-81
2023/11/28 15:11:08;;;;;;;;;;;;;;;;;;5089584;28;20013;-82
2023/11/28 15:13:35;;;;;;;;;;;;;;;;;;5089670;28;19970;-81
2023/11/28 15:16:02;;;;;;;;;;;;;;;;;;5084155;28;20026;-84
2023/11/28 15:18:28;;;;;;;;;;;;;;;;;;5088571;28;20342;-83
2023/11/28 15:20:54;;;;;;;;;;;;;;;;;;5068842;28;19924;-85
2023/11/28 15:23:20;;;;;;;;;;;;;;;;;;5089414;28;19941;-86
2023/11/28 15:25:46;;;;;;;;;;;;;;;;;;5089446;28;19948;-86
2023/11/28 15:28:14;;;;;;;;;;;;;;;;;;5089807;28;19935;-85
2023/11/28 15:30:40;;;;;;;;;;;;;;;;;;5090005;28;20369;-85
2023/11/28 15:33:06;;;;;;;;;;;;;;;;;;5086643;28;20082;-86
2023/11/28 15:35:32;;;;;;;;;;;;;;;;;;5082739;28;19908;-84
2023/11/28 15:37:58;;;;;;;;;;;;;;;;;;5070630;28;20424;-84
2023/11/28 15:40:24;;;;;;;;;;;;;;;;;;5090329;28;19979;-85
2023/11/28 15:42:50;;;;;;;;;;;;;;;;;;5090011;28;20291;-85
2023/11/28 15:45:16;;;;;;;;;;;;;;;;;;5071040;28;19951;-84
2023/11/28 15:47:42;;;;;;;;;;;;;;;;;;5088308;28;19939;-84
2023/11/28 15:50:08;;;;;;;;;;;;;;;;;;5087117;28;19954;-85
2023/11/28 15:52:34;;;;;;;;;;;;;;;;;;5087675;28;20007;-85
2023/11/28 15:55:00;;;;;;;;;;;;;;;;;;5080755;28;20015;-84
2023/11/28 15:57:27;;;;;;;;;;;;;;;;;;5070101;28;19964;-87
2023/11/28 15:59:57;;;;;;;;;;;;;;;;;;5088054;28;20014;-85
2023/11/28 16:02:23;;;;;;;;;;;;;;;;;;5087587;28;19935;-87
2023/11/28 16:04:49;;;;;;;;;;;;;;;;;;5089425;28;19935;-85
2023/11/28 16:07:16;;;;;;;;;;;;;;;;;;5085387;28;19955;-86
2023/11/28 16:09:42;;;;;;;;;;;;;;;;;;5089266;28;19930;-85
2023/11/28 16:12:08;;;;;;;;;;;;;;;;;;5089581;28;20022;-87
2023/11/28 16:14:34;;;;;;;;;;;;;;;;;;5089447;28;20236;-85
2023/11/28 16:17:02;;;;;;;;;;;;;;;;;;5086259;28;19962;-86
2023/11/28 16:19:28;;;;;;;;;;;;;;;;;;5085568;28;19923;-85
2023/11/28 16:21:53;;;;;;;;;;;;;;;;;;5069286;28;19969;-83
2023/11/28 16:24:19;;;;;;;;;;;;;;;;;;5096581;27;20079;-89
2023/11/28 16:26:45;;;;;;;;;;;;;;;;;;5094181;28;20355;-89
2023/11/28 16:29:12;;;;;;;;;;;;;;;;;;5088035;28;20356;-88
2023/11/28 16:31:38;;;;;;;;;;;;;;;;;;5081336;28;19907;-90
2023/11/28 16:34:04;;;;;;;;;;;;;;;;;;5079061;28;20318;-86
2023/11/28 16:36:30;;;;;;;;;;;;;;;;;;5082687;28;20142;-88